createdAt,value
2019-04-04T00:00:11.758Z,100859.27
2019-04-04T00:05:17.856Z,100848.08
2019-04-04T00:10:23.320Z,100836.34
2019-04-04T00:15:28.985Z,100833.25
2019-04-04T00:20:34.477Z,100834.03
2019-04-04T00:25:40.419Z,100820.39
2019-04-04T00:30:48.269Z,100820.58
2019-04-04T00:35:53.345Z,100813.41
2019-04-04T00:40:58.854Z,100810.59
2019-04-04T00:46:04.609Z,100801.30
2019-04-04T00:51:09.851Z,100801.78
2019-04-04T00:56:16.056Z,100795.12
2019-04-04T01:01:26.094Z,100790.55
2019-04-04T01:06:33.475Z,100795.59
2019-04-04T01:11:37.484Z,100793.93
2019-04-04T01:16:43.088Z,100790.40
2019-04-04T01:21:48.474Z,100784.23
2019-04-04T01:26:54.462Z,100780.09
2019-04-04T01:32:00.205Z,100780.05
2019-04-04T01:37:06.069Z,100777.13
2019-04-04T01:42:11.549Z,100773.00
2019-04-04T01:47:17.689Z,100770.84
2019-04-04T01:52:27.726Z,100755.87
2019-04-04T01:57:31.716Z,100759.69
2019-04-04T02:02:37.281Z,100765.22
2019-04-04T02:07:42.579Z,100762.78
2019-04-04T02:12:47.906Z,100762.30
2019-04-04T02:17:53.526Z,100768.19
2019-04-04T02:23:01.170Z,100767.66
2019-04-04T02:28:08.878Z,100756.62
2019-04-04T02:33:14.869Z,100754.27
2019-04-04T02:38:20.218Z,100753.73
2019-04-04T02:43:28.390Z,100744.78
2019-04-04T02:48:33.803Z,100758.77
2019-04-04T02:53:39.072Z,100754.91
2019-04-04T02:58:46.346Z,100745.87
2019-04-04T03:03:52.923Z,100751.10
2019-04-04T03:08:58.419Z,100745.34
2019-04-04T03:14:04.682Z,100741.72
2019-04-04T03:19:11.336Z,100754.14
2019-04-04T03:24:16.953Z,100741.36
2019-04-04T03:29:22.428Z,100741.87
2019-04-04T03:34:27.801Z,100747.48
2019-04-04T03:39:33.344Z,100746.02
2019-04-04T03:44:38.697Z,100751.34
2019-04-04T03:49:44.169Z,100762.50
2019-04-04T03:54:49.615Z,100761.20
2019-04-04T03:59:55.923Z,100754.98
2019-04-04T04:05:02.188Z,100758.44
2019-04-04T04:10:07.829Z,100764.97
2019-04-04T04:15:13.338Z,100756.97
2019-04-04T04:20:20.414Z,100755.67
2019-04-04T04:25:25.866Z,100753.66
2019-04-04T04:30:31.122Z,100766.23
2019-04-04T04:35:40.762Z,100764.48
2019-04-04T04:40:46.912Z,100757.20
2019-04-04T04:45:51.381Z,100754.69
2019-04-04T04:50:56.765Z,100771.11
2019-04-04T04:56:03.350Z,100771.38
2019-04-04T05:01:08.559Z,100771.50
2019-04-04T05:06:14.265Z,100773.88
2019-04-04T05:11:19.838Z,100771.80
2019-04-04T05:16:25.279Z,100769.44
2019-04-04T05:21:33.886Z,100766.53
2019-04-04T05:26:38.720Z,100760.17
2019-04-04T05:31:44.452Z,100774.04
2019-04-04T05:36:49.820Z,100768.98
2019-04-04T05:41:55.317Z,100763.98
2019-04-04T05:47:00.946Z,100761.39
2019-04-04T05:52:08.854Z,100769.80
2019-04-04T05:57:13.353Z,100771.22
2019-04-04T06:02:18.756Z,100769.41
2019-04-04T06:07:24.622Z,100771.47
2019-04-04T06:12:29.869Z,100774.36
2019-04-04T06:17:35.128Z,100764.08
2019-04-04T06:22:40.684Z,100771.34
2019-04-04T06:27:45.874Z,100760.62
2019-04-04T06:32:53.375Z,100762.73
2019-04-04T06:37:59.111Z,100759.11
2019-04-04T06:43:10.555Z,100755.92
2019-04-04T06:48:12.608Z,100758.53
2019-04-04T06:53:18.181Z,100762.48
2019-04-04T06:58:23.384Z,100752.41
2019-04-04T07:03:28.479Z,100748.36
2019-04-04T07:08:34.041Z,100745.57
2019-04-04T07:13:42.636Z,100743.55
2019-04-04T07:18:46.845Z,100740.91
2019-04-04T07:23:52.167Z,100749.20
2019-04-04T07:28:57.540Z,100740.62
2019-04-04T07:34:03.465Z,100745.90
2019-04-04T07:39:12.164Z,100748.46
2019-04-04T07:44:16.220Z,100745.48
2019-04-04T07:49:23.243Z,100753.31
2019-04-04T07:54:31.766Z,100735.05
2019-04-04T07:59:36.874Z,100733.48
2019-04-04T08:04:43.099Z,100719.69
2019-04-04T08:09:48.486Z,100722.64
2019-04-04T08:14:54.034Z,100713.95
2019-04-04T08:20:00.196Z,100715.51
2019-04-04T08:25:06.094Z,100718.20
2019-04-04T08:30:12.080Z,100723.70
2019-04-04T08:35:17.627Z,100723.16
2019-04-04T08:40:23.193Z,100722.38
2019-04-04T08:45:29.115Z,100713.38
2019-04-04T08:50:34.909Z,100708.09
2019-04-04T08:55:40.454Z,100701.30
2019-04-04T09:00:46.059Z,100691.20
2019-04-04T09:05:51.762Z,100698.88
2019-04-04T09:10:57.504Z,100706.92
2019-04-04T09:16:03.039Z,100708.34
2019-04-04T09:21:08.799Z,100699.05
2019-04-04T09:26:14.313Z,100696.25
2019-04-04T09:31:19.802Z,100682.06
2019-04-04T09:36:25.112Z,100696.41
2019-04-04T09:41:30.660Z,100683.44
2019-04-04T09:46:36.352Z,100678.30
2019-04-04T09:51:41.556Z,100676.17
2019-04-04T09:56:47.155Z,100670.35
2019-04-04T10:01:52.885Z,100656.98
2019-04-04T10:06:58.244Z,100658.97
2019-04-04T10:12:05.068Z,100666.25
2019-04-04T10:17:10.640Z,100659.70
2019-04-04T10:22:16.205Z,100651.00
2019-04-04T10:27:22.999Z,100652.14
2019-04-04T10:32:28.358Z,100637.08
2019-04-04T10:37:33.629Z,100630.34
2019-04-04T10:42:39.085Z,100642.27
2019-04-04T10:47:44.745Z,100631.28
2019-04-04T10:52:50.095Z,100638.05
2019-04-04T10:57:55.467Z,100631.08
2019-04-04T11:03:00.818Z,100621.47
2019-04-04T11:08:06.272Z,100617.11
2019-04-04T11:13:11.599Z,100614.89
2019-04-04T11:18:16.902Z,100613.58
2019-04-04T11:23:22.556Z,100601.73
2019-04-04T11:28:27.928Z,100603.84
2019-04-04T11:33:34.580Z,100599.91
2019-04-04T11:38:40.311Z,100597.56
2019-04-04T11:43:45.773Z,100579.92
2019-04-04T11:48:51.204Z,100590.31
2019-04-04T11:54:00.345Z,100591.55
2019-04-04T11:59:08.007Z,100582.25
2019-04-04T12:04:12.822Z,100590.52
2019-04-04T12:09:18.205Z,100576.43
2019-04-04T12:14:23.708Z,100566.78
2019-04-04T12:19:29.151Z,100563.66
2019-04-04T12:24:34.750Z,100559.33
2019-04-04T12:29:40.217Z,100558.34
2019-04-04T12:34:46.879Z,100556.84
2019-04-04T12:39:52.599Z,100554.44
2019-04-04T12:44:57.841Z,100535.72
2019-04-04T12:50:03.243Z,100537.80
2019-04-04T12:55:09.359Z,100536.69
2019-04-04T13:00:15.059Z,100531.78
2019-04-04T13:05:21.115Z,100526.94
2019-04-04T13:10:32.845Z,100526.94
2019-04-04T13:15:33.984Z,100521.34
2019-04-04T13:20:39.325Z,100512.54
2019-04-04T13:25:44.701Z,100512.45
2019-04-04T13:30:50.243Z,100512.90
2019-04-04T13:35:56.216Z,100514.34
2019-04-04T13:41:01.743Z,100508.75
2019-04-04T13:46:07.308Z,100515.52
2019-04-04T13:51:12.502Z,100504.90
2019-04-04T13:56:17.886Z,100500.66
2019-04-04T14:01:25.231Z,100501.37
2019-04-04T14:06:30.251Z,100498.13
2019-04-04T14:11:35.579Z,100499.33
2019-04-04T14:16:40.844Z,100493.45
2019-04-04T14:21:46.400Z,100495.45
2019-04-04T14:26:51.874Z,100486.56
2019-04-04T14:31:57.604Z,100485.06
2019-04-04T14:37:03.133Z,100487.16
2019-04-04T14:42:08.526Z,100472.05
2019-04-04T14:47:16.232Z,100476.11
2019-04-04T14:52:24.131Z,100481.85
2019-04-04T14:57:28.417Z,100475.34
2019-04-04T15:02:33.871Z,100464.06
2019-04-04T15:07:39.237Z,100463.09
2019-04-04T15:12:44.892Z,100465.31
2019-04-04T15:17:50.071Z,100462.44
2019-04-04T15:22:55.519Z,100457.19
2019-04-04T15:28:00.890Z,100465.36
2019-04-04T15:33:06.330Z,100473.00
2019-04-04T15:38:12.001Z,100472.45
2019-04-04T15:43:17.443Z,100475.19
2019-04-04T15:48:23.070Z,100475.40
2019-04-04T15:53:28.385Z,100483.39
2019-04-04T15:58:33.935Z,100486.12
2019-04-04T16:03:39.183Z,100481.14
2019-04-04T16:08:44.465Z,100490.08
2019-04-04T16:13:49.690Z,100492.06
2019-04-04T16:18:55.145Z,100489.07
2019-04-04T16:24:00.471Z,100499.21
2019-04-04T16:29:06.088Z,100497.48
2019-04-04T16:34:11.460Z,100507.27
2019-04-04T16:39:17.142Z,100509.59
2019-04-04T16:44:22.587Z,100521.52
2019-04-04T16:49:27.689Z,100516.77
2019-04-04T16:54:33.207Z,100521.70
2019-04-04T16:59:38.714Z,100523.55
2019-04-04T17:04:44.245Z,100537.64
2019-04-04T17:09:50.396Z,100536.34
2019-04-04T17:14:55.888Z,100540.36
2019-04-04T17:20:01.314Z,100552.62
2019-04-04T17:25:09.137Z,100554.84
2019-04-04T17:30:16.760Z,100563.18
2019-04-04T17:35:22.412Z,100568.44
2019-04-04T17:40:28.326Z,100573.27
2019-04-04T17:45:34.624Z,100585.08
2019-04-04T17:50:40.189Z,100591.61
2019-04-04T17:55:46.235Z,100598.63
2019-04-04T18:00:52.183Z,100595.92
2019-04-04T18:05:58.878Z,100599.79
2019-04-04T18:11:05.266Z,100604.16
2019-04-04T18:16:11.101Z,100608.45
2019-04-04T18:21:16.686Z,100618.47
2019-04-04T18:26:21.893Z,100627.13
2019-04-04T18:31:27.170Z,100629.25
2019-04-04T18:36:32.539Z,100633.53
2019-04-04T18:41:37.918Z,100639.58
2019-04-04T18:46:43.278Z,100642.20
2019-04-04T18:51:48.572Z,100649.47
2019-04-04T18:56:54.207Z,100648.95
2019-04-04T19:01:59.605Z,100658.08
2019-04-04T19:07:04.935Z,100663.31
2019-04-04T19:12:10.476Z,100667.19
2019-04-04T19:17:16.139Z,100669.70
2019-04-04T19:22:25.145Z,100684.00
2019-04-04T19:27:30.672Z,100673.44
2019-04-04T19:32:36.027Z,100672.89
2019-04-04T19:37:41.767Z,100684.61
2019-04-04T19:42:47.351Z,100691.51
2019-04-04T19:47:52.809Z,100696.20
2019-04-04T19:52:58.165Z,100697.02
2019-04-04T19:58:04.857Z,100702.66
2019-04-04T20:03:10.054Z,100705.49
2019-04-04T20:08:15.717Z,100701.97
2019-04-04T20:13:30.208Z,100710.50
2019-04-04T20:18:27.821Z,100710.41
2019-04-04T20:23:33.695Z,100715.50
2019-04-04T20:28:40.223Z,100725.03
2019-04-04T20:33:45.947Z,100728.79
2019-04-04T20:38:51.222Z,100738.69
2019-04-04T20:43:56.326Z,100738.58
2019-04-04T20:49:02.659Z,100739.77
2019-04-04T20:54:07.971Z,100736.96
2019-04-04T20:59:13.259Z,100749.51
2019-04-04T21:04:18.673Z,100745.48
2019-04-04T21:09:24.334Z,100754.05
2019-04-04T21:14:30.264Z,100745.59
2019-04-04T21:19:35.922Z,100757.25
2019-04-04T21:24:41.595Z,100754.04
2019-04-04T21:29:52.011Z,100752.71
2019-04-04T21:34:57.543Z,100752.97
2019-04-04T21:40:02.998Z,100759.37
2019-04-04T21:45:09.199Z,100757.44
2019-04-04T21:50:15.305Z,100764.20
2019-04-04T21:55:20.697Z,100768.28
2019-04-04T22:00:27.823Z,100777.29
2019-04-04T22:05:34.891Z,100776.80
2019-04-04T22:10:40.872Z,100773.92
2019-04-04T22:15:46.334Z,100774.61
2019-04-04T22:20:51.594Z,100773.14
2019-04-04T22:25:57.050Z,100773.41
2019-04-04T22:31:02.515Z,100775.70
2019-04-04T22:36:08.024Z,100776.11
2019-04-04T22:41:13.259Z,100769.05
2019-04-04T22:46:18.446Z,100778.73
2019-04-04T22:51:23.789Z,100767.90
2019-04-04T22:56:29.463Z,100764.98
2019-04-04T23:01:34.963Z,100757.19
2019-04-04T23:06:40.844Z,100763.80
2019-04-04T23:11:46.426Z,100771.83
2019-04-04T23:16:51.976Z,100768.16
2019-04-04T23:21:57.337Z,100770.90
2019-04-04T23:27:02.987Z,100770.38
2019-04-04T23:32:08.465Z,100765.72
2019-04-04T23:37:13.857Z,100765.91
2019-04-04T23:42:19.281Z,100763.96
2019-04-04T23:47:24.743Z,100765.74
2019-04-04T23:52:30.108Z,100768.53
2019-04-04T23:57:35.574Z,100764.48
